createdAt,value
2023-04-20T00:01:48.539Z,71.84
2023-04-20T00:04:19.932Z,71.75
2023-04-20T00:06:51.785Z,71.67
2023-04-20T00:09:30.609Z,71.45
2023-04-20T00:12:06.655Z,71.51
2023-04-20T00:14:41.595Z,71.17
2023-04-20T00:17:33.787Z,71.17
2023-04-20T00:20:15.526Z,71.09
2023-04-20T00:23:19.356Z,70.94
2023-04-20T00:26:18.790Z,71.12
2023-04-20T00:29:23.272Z,71.36
2023-04-20T00:32:15.001Z,71.36
2023-04-20T00:34:50.366Z,71.43
2023-04-20T00:37:45.358Z,71.71
2023-04-20T00:40:15.445Z,71.90
2023-04-20T00:42:58.344Z,71.65
2023-04-20T00:45:59.191Z,71.40
2023-04-20T00:48:39.720Z,71.30
2023-04-20T00:51:23.028Z,71.15
2023-04-20T00:53:58.545Z,71.10
2023-04-20T00:56:43.299Z,71.35
2023-04-20T00:59:45.489Z,71.57
2023-04-20T01:02:21.650Z,72.00
2023-04-20T01:04:54.274Z,72.38
2023-04-20T01:07:32.078Z,72.84
2023-04-20T01:10:05.461Z,73.40
2023-04-20T01:16:49.268Z,75.05
2023-04-20T01:19:20.525Z,75.69
2023-04-20T01:21:54.203Z,75.99
2023-04-20T01:24:28.497Z,76.51
2023-04-20T01:27:06.261Z,76.95
2023-04-20T01:29:41.485Z,77.43
2023-04-20T01:32:21.977Z,77.80
2023-04-20T01:34:57.563Z,78.27
2023-04-20T01:37:39.570Z,78.52
2023-04-20T01:40:27.047Z,78.91
2023-04-20T01:43:07.813Z,79.38
2023-04-20T01:46:14.981Z,79.85
2023-04-20T01:49:00.186Z,80.23
2023-04-20T01:51:54.872Z,80.91
2023-04-20T01:54:39.219Z,81.40
2023-04-20T01:57:22.601Z,81.96
2023-04-20T02:00:28.745Z,82.60
2023-04-20T02:03:16.637Z,83.25
2023-04-20T02:06:02.332Z,83.60
2023-04-20T02:08:39.139Z,83.84
2023-04-20T02:11:12.399Z,84.19
2023-04-20T02:13:44.679Z,84.39
2023-04-20T02:16:44.508Z,84.51
2023-04-20T02:19:45.188Z,84.71
2023-04-20T02:22:27.662Z,85.43
2023-04-20T02:25:02.253Z,85.75
2023-04-20T02:27:42.544Z,86.11
2023-04-20T02:30:30.430Z,86.22
2023-04-20T02:33:03.039Z,86.31
2023-04-20T02:36:01.043Z,86.31
2023-04-20T02:38:38.116Z,86.41
2023-04-20T02:41:15.956Z,86.57
2023-04-20T02:43:57.197Z,86.68
2023-04-20T02:46:29.943Z,86.86
2023-04-20T02:49:34.427Z,86.60
2023-04-20T02:52:04.501Z,86.49
2023-04-20T02:54:39.513Z,86.45
2023-04-20T02:57:39.180Z,86.55
2023-04-20T03:00:46.958Z,86.66
2023-04-20T03:07:59.782Z,86.83
2023-04-20T03:10:54.424Z,86.82
2023-04-20T03:14:24.337Z,86.71
2023-04-20T03:17:00.044Z,86.85
2023-04-20T03:20:38.595Z,87.00
2023-04-20T03:23:21.796Z,86.88
2023-04-20T03:26:06.699Z,86.84
2023-04-20T03:29:00.393Z,87.04
2023-04-20T03:31:57.646Z,87.08
2023-04-20T03:34:31.662Z,86.93
2023-04-20T03:37:07.248Z,86.92
2023-04-20T03:39:51.002Z,86.94
2023-04-20T03:46:46.258Z,87.22
2023-04-20T03:49:29.225Z,87.33
2023-04-20T03:52:11.748Z,87.31
2023-04-20T03:54:55.877Z,87.66
2023-04-20T03:57:34.137Z,88.06
2023-04-20T04:00:13.751Z,88.72
2023-04-20T04:03:12.679Z,88.91
2023-04-20T04:06:40.217Z,89.32
2023-04-20T04:09:54.206Z,89.71
2023-04-20T04:12:39.236Z,90.47
2023-04-20T04:16:08.619Z,91.47
2023-04-20T04:19:19.490Z,92.75
2023-04-20T04:22:55.782Z,93.62
2023-04-20T04:25:59.859Z,94.45
2023-04-20T04:29:14.903Z,95.33
2023-04-20T04:31:50.842Z,95.98
2023-04-20T04:35:22.534Z,96.87
2023-04-20T04:38:05.665Z,97.41
2023-04-20T04:44:42.777Z,98.30
2023-04-20T04:48:59.242Z,99.26
2023-04-20T04:56:26.512Z,99.21
2023-04-20T05:00:05.886Z,99.74
2023-04-20T05:03:16.996Z,100.00
2023-04-20T05:07:18.097Z,100.00
2023-04-20T05:11:23.991Z,100.00
2023-04-20T05:15:33.767Z,100.00
2023-04-20T05:22:38.196Z,99.01
2023-04-20T05:30:21.850Z,97.06
2023-04-20T05:34:05.444Z,96.77
2023-04-20T05:37:06.429Z,96.69
2023-04-20T06:01:14.566Z,96.55
2023-04-20T06:04:48.072Z,96.68
2023-04-20T06:17:25.466Z,99.14
2023-04-20T06:21:14.116Z,99.60
2023-04-20T06:24:32.284Z,99.91
2023-04-20T06:32:14.616Z,99.99
2023-04-20T06:35:37.533Z,99.96
2023-04-20T06:38:36.025Z,99.83
2023-04-20T06:42:21.359Z,100.00
2023-04-20T06:45:34.242Z,100.00
2023-04-20T07:20:09.522Z,100.00
2023-04-20T07:25:49.894Z,100.00
2023-04-20T07:28:53.394Z,100.00
2023-04-20T07:46:48.828Z,100.00
2023-04-20T07:54:37.686Z,100.00
2023-04-20T08:01:20.229Z,100.00
2023-04-20T08:08:24.908Z,100.00
2023-04-20T09:31:14.623Z,100.00
2023-04-20T10:55:36.486Z,100.00
2023-04-20T11:04:42.858Z,100.00
2023-04-20T11:17:03.936Z,100.00
2023-04-20T11:59:06.737Z,100.00
2023-04-20T12:20:50.944Z,100.00
2023-04-20T12:33:52.224Z,100.00
2023-04-20T12:36:52.785Z,100.00
2023-04-20T12:40:37.252Z,100.00
2023-04-20T12:44:24.756Z,99.90
2023-04-20T12:56:01.612Z,100.00
2023-04-20T12:58:29.558Z,100.00
2023-04-20T13:00:56.808Z,100.00
2023-04-20T13:03:25.099Z,99.95
2023-04-20T13:05:56.188Z,99.83
2023-04-20T13:08:23.924Z,99.94
2023-04-20T13:10:51.089Z,99.65
2023-04-20T13:13:23.898Z,99.70
2023-04-20T13:15:53.674Z,99.91
2023-04-20T13:18:24.377Z,99.81
2023-04-20T13:20:55.962Z,99.90
2023-04-20T13:23:23.996Z,99.96
2023-04-20T13:29:52.255Z,100.00
2023-04-20T13:44:01.692Z,99.68
2023-04-20T13:46:57.560Z,99.86
2023-04-20T13:50:46.464Z,100.00
2023-04-20T13:53:56.242Z,100.00
2023-04-20T13:57:20.067Z,100.00
2023-04-20T14:00:29.927Z,100.00
2023-04-20T14:04:17.411Z,100.00
2023-04-20T14:12:14.708Z,100.00
2023-04-20T14:16:19.050Z,100.00
2023-04-20T14:34:02.093Z,100.00
2023-04-20T14:42:10.911Z,100.00
2023-04-20T14:44:58.864Z,100.00
2023-04-20T14:52:03.411Z,100.00
2023-04-20T14:55:43.549Z,100.00
2023-04-20T14:59:08.856Z,100.00
2023-04-20T15:02:57.445Z,100.00
2023-04-20T15:06:04.522Z,100.00
2023-04-20T15:09:20.620Z,100.00
2023-04-20T15:12:34.452Z,100.00
2023-04-20T15:33:35.123Z,100.00
2023-04-20T15:45:07.354Z,98.79
2023-04-20T16:01:54.220Z,98.59
2023-04-20T16:10:12.835Z,99.35
2023-04-20T16:13:16.386Z,99.60
2023-04-20T16:16:29.210Z,99.92
2023-04-20T16:28:58.588Z,100.00
2023-04-20T16:36:32.094Z,100.00
2023-04-20T16:44:43.245Z,100.00
2023-04-20T16:48:24.990Z,100.00
2023-04-20T16:56:02.338Z,100.00
2023-04-20T17:21:22.244Z,98.68
2023-04-20T17:24:24.597Z,98.36
2023-04-20T17:32:39.060Z,97.83
2023-04-20T17:45:02.786Z,96.24
2023-04-20T17:48:24.465Z,95.93
2023-04-20T18:00:48.413Z,94.11
2023-04-20T18:18:10.396Z,93.37
2023-04-20T18:29:43.519Z,93.15
2023-04-20T18:46:15.509Z,95.61
2023-04-20T18:58:19.433Z,97.66
2023-04-20T19:02:29.546Z,98.92
2023-04-20T19:05:49.441Z,99.50
2023-04-20T19:09:07.309Z,99.88
2023-04-20T19:12:14.787Z,99.97
2023-04-20T19:16:23.531Z,100.00
2023-04-20T19:23:45.058Z,100.00
2023-04-20T19:26:28.986Z,100.00
2023-04-20T19:42:23.831Z,100.00
2023-04-20T19:45:13.487Z,100.00
2023-04-20T19:51:03.596Z,100.00
2023-04-20T19:53:33.752Z,100.00
2023-04-20T19:56:06.204Z,100.00
2023-04-20T19:58:38.954Z,100.00
2023-04-20T20:01:14.881Z,100.00
2023-04-20T20:03:49.105Z,100.00
2023-04-20T20:06:20.177Z,100.00
2023-04-20T20:08:54.956Z,100.00
2023-04-20T20:11:29.093Z,100.00
2023-04-20T20:14:00.862Z,100.00
2023-04-20T20:16:33.234Z,100.00
2023-04-20T20:19:06.475Z,100.00
2023-04-20T20:22:01.935Z,100.00
2023-04-20T20:24:53.711Z,100.00
2023-04-20T20:27:50.510Z,100.00
2023-04-20T20:30:58.085Z,100.00
2023-04-20T20:34:10.196Z,100.00
2023-04-20T20:40:52.594Z,100.00
2023-04-20T20:44:11.750Z,100.00
2023-04-20T20:47:33.910Z,100.00
2023-04-20T20:55:36.049Z,100.00
2023-04-20T20:59:09.211Z,100.00
2023-04-20T21:02:21.335Z,100.00
2023-04-20T21:09:02.608Z,100.00
2023-04-20T21:12:24.919Z,100.00
2023-04-20T21:15:28.327Z,100.00
2023-04-20T21:27:18.792Z,99.54
2023-04-20T21:30:13.448Z,99.03
2023-04-20T21:37:59.353Z,98.08
2023-04-20T21:42:01.058Z,97.63
2023-04-20T21:47:55.021Z,96.85
2023-04-20T21:51:15.869Z,96.93
2023-04-20T21:53:58.275Z,96.85
2023-04-20T21:56:45.495Z,96.75
2023-04-20T21:59:32.819Z,96.06
2023-04-20T22:02:58.000Z,95.80
2023-04-20T22:06:34.156Z,95.13
2023-04-20T22:09:27.345Z,94.81
2023-04-20T22:12:28.872Z,94.48
2023-04-20T22:15:45.546Z,94.10
2023-04-20T22:18:23.600Z,93.85
2023-04-20T22:21:03.868Z,93.72
2023-04-20T22:24:02.358Z,93.76
2023-04-20T22:26:43.889Z,93.10
2023-04-20T22:29:21.080Z,92.70
2023-04-20T22:32:13.904Z,92.17
2023-04-20T22:38:42.607Z,91.64
2023-04-20T22:42:19.462Z,91.18
2023-04-20T22:50:20.021Z,90.27
2023-04-20T23:10:30.088Z,89.39
2023-04-20T23:13:17.924Z,89.19
2023-04-20T23:16:33.305Z,89.74
2023-04-20T23:19:26.912Z,90.03
2023-04-20T23:22:29.019Z,90.57
2023-04-20T23:25:11.683Z,91.18
2023-04-20T23:28:21.028Z,92.04
2023-04-20T23:31:41.403Z,93.07
2023-04-20T23:34:42.469Z,93.79
2023-04-20T23:44:55.862Z,95.04
2023-04-20T23:48:15.254Z,95.33
2023-04-20T23:51:03.928Z,96.75
2023-04-20T23:53:45.474Z,95.80
2023-04-20T23:56:41.233Z,95.78
2023-04-20T23:59:19.567Z,96.02
